sensor_id;sensor_type;location;lat;lon;timestamp;P1;durP1;ratioP1;P2;durP2;ratioP2
72379;SDS011;60354;47.798;12.472;2022-07-23T00:01:18;3.97;;;3.00;;
72379;SDS011;60354;47.798;12.472;2022-07-23T00:03:44;5.85;;;3.38;;
72379;SDS011;60354;47.798;12.472;2022-07-23T00:06:10;3.88;;;3.42;;
72379;SDS011;60354;47.798;12.472;2022-07-23T00:08:35;4.43;;;3.30;;
72379;SDS011;60354;47.798;12.472;2022-07-23T00:11:01;3.75;;;3.00;;
72379;SDS011;60354;47.798;12.472;2022-07-23T00:13:27;7.63;;;3.20;;
72379;SDS011;60354;47.798;12.472;2022-07-23T00:15:52;5.10;;;3.30;;
72379;SDS011;60354;47.798;12.472;2022-07-23T00:18:18;5.03;;;3.20;;
72379;SDS011;60354;47.798;12.472;2022-07-23T00:20:44;5.60;;;3.33;;
72379;SDS011;60354;47.798;12.472;2022-07-23T00:23:09;5.25;;;3.15;;
72379;SDS011;60354;47.798;12.472;2022-07-23T00:25:35;5.03;;;3.50;;
72379;SDS011;60354;47.798;12.472;2022-07-23T00:28:01;5.55;;;3.70;;
72379;SDS011;60354;47.798;12.472;2022-07-23T00:30:27;4.65;;;3.40;;
72379;SDS011;60354;47.798;12.472;2022-07-23T00:32:58;4.10;;;3.50;;
72379;SDS011;60354;47.798;12.472;2022-07-23T00:35:28;4.97;;;3.53;;
72379;SDS011;60354;47.798;12.472;2022-07-23T00:37:56;5.95;;;3.70;;
72379;SDS011;60354;47.798;12.472;2022-07-23T00:40:23;5.78;;;3.53;;
72379;SDS011;60354;47.798;12.472;2022-07-23T00:42:49;4.90;;;3.40;;
72379;SDS011;60354;47.798;12.472;2022-07-23T00:45:14;4.70;;;3.80;;
72379;SDS011;60354;47.798;12.472;2022-07-23T00:47:40;5.22;;;3.38;;
72379;SDS011;60354;47.798;12.472;2022-07-23T00:50:07;6.00;;;3.85;;
72379;SDS011;60354;47.798;12.472;2022-07-23T00:52:33;4.63;;;3.60;;
72379;SDS011;60354;47.798;12.472;2022-07-23T00:55:00;4.55;;;3.50;;
72379;SDS011;60354;47.798;12.472;2022-07-23T00:57:26;5.40;;;3.70;;
72379;SDS011;60354;47.798;12.472;2022-07-23T00:59:52;4.47;;;3.30;;
72379;SDS011;60354;47.798;12.472;2022-07-23T01:02:18;6.57;;;3.50;;
72379;SDS011;60354;47.798;12.472;2022-07-23T01:04:44;5.28;;;3.20;;
72379;SDS011;60354;47.798;12.472;2022-07-23T01:07:10;4.75;;;3.13;;
72379;SDS011;60354;47.798;12.472;2022-07-23T01:09:36;3.53;;;3.00;;
72379;SDS011;60354;47.798;12.472;2022-07-23T01:12:02;4.53;;;3.42;;
72379;SDS011;60354;47.798;12.472;2022-07-23T01:14:28;4.72;;;3.42;;
72379;SDS011;60354;47.798;12.472;2022-07-23T01:16:54;4.40;;;3.20;;
72379;SDS011;60354;47.798;12.472;2022-07-23T01:19:19;5.28;;;3.25;;
72379;SDS011;60354;47.798;12.472;2022-07-23T01:21:49;7.63;;;3.33;;
72379;SDS011;60354;47.798;12.472;2022-07-23T01:24:16;5.18;;;3.47;;
72379;SDS011;60354;47.798;12.472;2022-07-23T01:26:53;4.75;;;3.60;;
72379;SDS011;60354;47.798;12.472;2022-07-23T01:29:19;4.93;;;3.28;;
72379;SDS011;60354;47.798;12.472;2022-07-23T01:31:47;5.78;;;3.53;;
72379;SDS011;60354;47.798;12.472;2022-07-23T01:34:13;6.32;;;3.08;;
72379;SDS011;60354;47.798;12.472;2022-07-23T01:36:39;5.50;;;3.53;;
72379;SDS011;60354;47.798;12.472;2022-07-23T01:39:05;4.63;;;3.17;;
72379;SDS011;60354;47.798;12.472;2022-07-23T01:41:32;6.65;;;3.17;;
72379;SDS011;60354;47.798;12.472;2022-07-23T01:43:57;7.35;;;3.30;;
72379;SDS011;60354;47.798;12.472;2022-07-23T01:46:24;4.10;;;3.20;;
72379;SDS011;60354;47.798;12.472;2022-07-23T01:48:50;5.35;;;3.40;;
72379;SDS011;60354;47.798;12.472;2022-07-23T01:51:36;3.72;;;2.92;;
72379;SDS011;60354;47.798;12.472;2022-07-23T01:54:06;3.88;;;3.10;;
72379;SDS011;60354;47.798;12.472;2022-07-23T01:56:32;5.15;;;3.00;;
72379;SDS011;60354;47.798;12.472;2022-07-23T01:58:57;4.10;;;3.42;;
72379;SDS011;60354;47.798;12.472;2022-07-23T02:01:23;4.97;;;3.30;;
72379;SDS011;60354;47.798;12.472;2022-07-23T02:03:48;5.07;;;2.95;;
72379;SDS011;60354;47.798;12.472;2022-07-23T02:06:14;5.75;;;3.30;;
72379;SDS011;60354;47.798;12.472;2022-07-23T02:08:39;5.32;;;3.78;;
72379;SDS011;60354;47.798;12.472;2022-07-23T02:11:05;5.70;;;3.40;;
72379;SDS011;60354;47.798;12.472;2022-07-23T02:13:32;5.03;;;3.40;;
72379;SDS011;60354;47.798;12.472;2022-07-23T02:15:57;4.05;;;3.30;;
72379;SDS011;60354;47.798;12.472;2022-07-23T02:18:23;4.25;;;3.30;;
72379;SDS011;60354;47.798;12.472;2022-07-23T02:20:50;4.82;;;3.40;;
72379;SDS011;60354;47.798;12.472;2022-07-23T02:23:16;4.30;;;3.25;;
72379;SDS011;60354;47.798;12.472;2022-07-23T02:25:44;5.80;;;3.63;;
72379;SDS011;60354;47.798;12.472;2022-07-23T02:28:09;6.10;;;4.20;;
72379;SDS011;60354;47.798;12.472;2022-07-23T02:30:35;6.05;;;4.85;;
72379;SDS011;60354;47.798;12.472;2022-07-23T02:33:01;7.53;;;5.45;;
72379;SDS011;60354;47.798;12.472;2022-07-23T02:35:26;14.13;;;5.20;;
72379;SDS011;60354;47.798;12.472;2022-07-23T02:37:52;8.90;;;5.22;;
72379;SDS011;60354;47.798;12.472;2022-07-23T02:40:18;7.60;;;4.70;;
72379;SDS011;60354;47.798;12.472;2022-07-23T02:42:44;8.32;;;4.30;;
72379;SDS011;60354;47.798;12.472;2022-07-23T02:45:10;5.72;;;4.55;;
72379;SDS011;60354;47.798;12.472;2022-07-23T02:47:35;8.43;;;4.40;;
72379;SDS011;60354;47.798;12.472;2022-07-23T02:50:01;5.53;;;3.88;;
72379;SDS011;60354;47.798;12.472;2022-07-23T02:52:28;6.38;;;3.67;;
72379;SDS011;60354;47.798;12.472;2022-07-23T02:54:53;5.15;;;3.70;;
72379;SDS011;60354;47.798;12.472;2022-07-23T02:57:19;7.03;;;3.75;;
72379;SDS011;60354;47.798;12.472;2022-07-23T02:59:44;4.93;;;3.60;;
72379;SDS011;60354;47.798;12.472;2022-07-23T03:02:10;5.85;;;3.50;;
72379;SDS011;60354;47.798;12.472;2022-07-23T03:04:37;3.28;;;2.70;;
72379;SDS011;60354;47.798;12.472;2022-07-23T03:07:02;5.05;;;3.00;;
72379;SDS011;60354;47.798;12.472;2022-07-23T03:09:28;5.93;;;2.83;;
72379;SDS011;60354;47.798;12.472;2022-07-23T03:11:53;4.55;;;2.65;;
72379;SDS011;60354;47.798;12.472;2022-07-23T03:14:19;4.00;;;2.80;;
72379;SDS011;60354;47.798;12.472;2022-07-23T03:16:44;3.50;;;2.88;;
72379;SDS011;60354;47.798;12.472;2022-07-23T03:19:10;6.63;;;3.22;;
72379;SDS011;60354;47.798;12.472;2022-07-23T03:21:35;4.63;;;2.90;;
72379;SDS011;60354;47.798;12.472;2022-07-23T03:24:06;4.68;;;2.58;;
72379;SDS011;60354;47.798;12.472;2022-07-23T03:26:35;4.47;;;2.63;;
72379;SDS011;60354;47.798;12.472;2022-07-23T03:29:01;3.70;;;2.53;;
72379;SDS011;60354;47.798;12.472;2022-07-23T03:31:29;3.35;;;2.50;;
72379;SDS011;60354;47.798;12.472;2022-07-23T03:33:59;4.05;;;2.70;;
72379;SDS011;60354;47.798;12.472;2022-07-23T03:36:25;3.58;;;2.83;;
72379;SDS011;60354;47.798;12.472;2022-07-23T03:38:53;3.97;;;3.03;;
72379;SDS011;60354;47.798;12.472;2022-07-23T03:41:19;4.40;;;2.88;;
72379;SDS011;60354;47.798;12.472;2022-07-23T03:43:48;5.30;;;3.40;;
72379;SDS011;60354;47.798;12.472;2022-07-23T03:47:11;7.57;;;3.65;;
72379;SDS011;60354;47.798;12.472;2022-07-23T03:50:32;4.75;;;3.65;;
72379;SDS011;60354;47.798;12.472;2022-07-23T03:52:59;6.03;;;3.58;;
72379;SDS011;60354;47.798;12.472;2022-07-23T03:55:25;4.40;;;3.60;;
72379;SDS011;60354;47.798;12.472;2022-07-23T03:57:51;8.05;;;3.90;;
72379;SDS011;60354;47.798;12.472;2022-07-23T04:00:16;6.47;;;3.70;;
72379;SDS011;60354;47.798;12.472;2022-07-23T04:02:44;5.40;;;3.42;;
72379;SDS011;60354;47.798;12.472;2022-07-23T04:05:14;4.93;;;4.00;;
72379;SDS011;60354;47.798;12.472;2022-07-23T04:08:12;5.57;;;4.00;;
72379;SDS011;60354;47.798;12.472;2022-07-23T04:10:42;9.15;;;3.80;;
72379;SDS011;60354;47.798;12.472;2022-07-23T04:13:08;6.07;;;3.88;;
72379;SDS011;60354;47.798;12.472;2022-07-23T04:15:34;6.03;;;3.90;;
72379;SDS011;60354;47.798;12.472;2022-07-23T04:17:59;7.15;;;3.90;;
72379;SDS011;60354;47.798;12.472;2022-07-23T04:20:34;5.32;;;4.05;;
72379;SDS011;60354;47.798;12.472;2022-07-23T04:23:01;6.13;;;3.90;;
72379;SDS011;60354;47.798;12.472;2022-07-23T04:25:27;6.63;;;3.80;;
72379;SDS011;60354;47.798;12.472;2022-07-23T04:27:53;5.00;;;3.83;;
72379;SDS011;60354;47.798;12.472;2022-07-23T04:30:18;6.30;;;3.75;;
72379;SDS011;60354;47.798;12.472;2022-07-23T04:32:44;4.70;;;3.80;;
72379;SDS011;60354;47.798;12.472;2022-07-23T04:35:17;5.68;;;4.00;;
72379;SDS011;60354;47.798;12.472;2022-07-23T04:37:43;4.82;;;3.70;;
72379;SDS011;60354;47.798;12.472;2022-07-23T04:40:09;5.43;;;3.90;;
72379;SDS011;60354;47.798;12.472;2022-07-23T04:42:36;6.82;;;4.50;;
72379;SDS011;60354;47.798;12.472;2022-07-23T04:45:02;7.50;;;3.85;;
72379;SDS011;60354;47.798;12.472;2022-07-23T04:47:29;4.75;;;3.70;;
72379;SDS011;60354;47.798;12.472;2022-07-23T04:49:57;4.70;;;3.83;;
72379;SDS011;60354;47.798;12.472;2022-07-23T04:52:23;8.70;;;4.00;;
72379;SDS011;60354;47.798;12.472;2022-07-23T04:54:49;6.13;;;3.90;;
72379;SDS011;60354;47.798;12.472;2022-07-23T04:57:15;7.72;;;3.85;;
72379;SDS011;60354;47.798;12.472;2022-07-23T04:59:41;8.18;;;3.95;;
72379;SDS011;60354;47.798;12.472;2022-07-23T05:02:08;8.32;;;3.80;;
72379;SDS011;60354;47.798;12.472;2022-07-23T05:04:33;7.90;;;4.32;;
72379;SDS011;60354;47.798;12.472;2022-07-23T05:07:00;5.30;;;4.10;;
72379;SDS011;60354;47.798;12.472;2022-07-23T05:09:25;7.55;;;4.20;;
72379;SDS011;60354;47.798;12.472;2022-07-23T05:11:51;8.15;;;4.15;;
72379;SDS011;60354;47.798;12.472;2022-07-23T05:14:18;5.88;;;4.40;;
72379;SDS011;60354;47.798;12.472;2022-07-23T05:16:48;6.70;;;4.40;;
72379;SDS011;60354;47.798;12.472;2022-07-23T05:19:20;5.35;;;4.20;;
72379;SDS011;60354;47.798;12.472;2022-07-23T05:21:46;6.65;;;4.15;;
72379;SDS011;60354;47.798;12.472;2022-07-23T05:24:12;6.35;;;4.25;;
72379;SDS011;60354;47.798;12.472;2022-07-23T05:26:38;8.00;;;4.22;;
72379;SDS011;60354;47.798;12.472;2022-07-23T05:29:03;5.63;;;4.00;;
72379;SDS011;60354;47.798;12.472;2022-07-23T05:31:29;6.70;;;4.70;;
72379;SDS011;60354;47.798;12.472;2022-07-23T05:33:55;6.70;;;4.40;;
72379;SDS011;60354;47.798;12.472;2022-07-23T05:36:21;5.10;;;4.28;;
72379;SDS011;60354;47.798;12.472;2022-07-23T05:38:52;6.38;;;4.60;;
72379;SDS011;60354;47.798;12.472;2022-07-23T05:41:18;6.78;;;4.35;;
72379;SDS011;60354;47.798;12.472;2022-07-23T05:43:44;6.55;;;4.38;;
72379;SDS011;60354;47.798;12.472;2022-07-23T05:46:10;6.05;;;4.53;;
72379;SDS011;60354;47.798;12.472;2022-07-23T05:48:38;5.72;;;4.63;;
72379;SDS011;60354;47.798;12.472;2022-07-23T05:51:21;5.18;;;4.25;;
72379;SDS011;60354;47.798;12.472;2022-07-23T05:53:49;5.43;;;4.13;;
72379;SDS011;60354;47.798;12.472;2022-07-23T05:56:18;5.65;;;4.50;;
72379;SDS011;60354;47.798;12.472;2022-07-23T05:58:44;5.20;;;4.10;;
72379;SDS011;60354;47.798;12.472;2022-07-23T06:01:10;6.30;;;4.70;;
72379;SDS011;60354;47.798;12.472;2022-07-23T06:03:48;9.70;;;5.10;;
72379;SDS011;60354;47.798;12.472;2022-07-23T06:06:13;5.60;;;4.60;;
72379;SDS011;60354;47.798;12.472;2022-07-23T06:08:39;6.97;;;4.50;;
72379;SDS011;60354;47.798;12.472;2022-07-23T06:11:06;6.25;;;4.40;;
72379;SDS011;60354;47.798;12.472;2022-07-23T06:13:32;7.25;;;4.43;;
72379;SDS011;60354;47.798;12.472;2022-07-23T06:15:58;7.28;;;4.40;;
72379;SDS011;60354;47.798;12.472;2022-07-23T06:18:24;5.63;;;4.13;;
72379;SDS011;60354;47.798;12.472;2022-07-23T06:20:49;5.97;;;4.25;;
72379;SDS011;60354;47.798;12.472;2022-07-23T06:23:15;5.53;;;4.30;;
72379;SDS011;60354;47.798;12.472;2022-07-23T06:25:40;6.35;;;4.32;;
72379;SDS011;60354;47.798;12.472;2022-07-23T06:28:06;4.97;;;3.95;;
72379;SDS011;60354;47.798;12.472;2022-07-23T06:30:32;4.82;;;4.13;;
72379;SDS011;60354;47.798;12.472;2022-07-23T06:32:57;5.28;;;4.45;;
72379;SDS011;60354;47.798;12.472;2022-07-23T06:35:23;6.30;;;4.15;;
72379;SDS011;60354;47.798;12.472;2022-07-23T06:37:49;6.55;;;4.40;;
72379;SDS011;60354;47.798;12.472;2022-07-23T06:40:15;6.05;;;4.20;;
72379;SDS011;60354;47.798;12.472;2022-07-23T06:42:40;5.00;;;4.05;;
72379;SDS011;60354;47.798;12.472;2022-07-23T06:45:13;6.07;;;4.30;;
72379;SDS011;60354;47.798;12.472;2022-07-23T06:47:39;4.63;;;3.88;;
72379;SDS011;60354;47.798;12.472;2022-07-23T06:50:06;5.15;;;3.80;;
72379;SDS011;60354;47.798;12.472;2022-07-23T06:52:31;4.70;;;3.88;;
72379;SDS011;60354;47.798;12.472;2022-07-23T06:54:57;6.70;;;4.30;;
72379;SDS011;60354;47.798;12.472;2022-07-23T06:57:23;7.05;;;3.83;;
72379;SDS011;60354;47.798;12.472;2022-07-23T06:59:51;4.82;;;4.07;;
72379;SDS011;60354;47.798;12.472;2022-07-23T07:02:16;6.43;;;4.00;;
72379;SDS011;60354;47.798;12.472;2022-07-23T07:04:42;6.03;;;4.10;;
72379;SDS011;60354;47.798;12.472;2022-07-23T07:07:08;6.53;;;3.97;;
72379;SDS011;60354;47.798;12.472;2022-07-23T07:09:34;6.13;;;4.10;;
72379;SDS011;60354;47.798;12.472;2022-07-23T07:11:59;4.90;;;4.25;;
72379;SDS011;60354;47.798;12.472;2022-07-23T07:14:25;9.25;;;3.97;;
72379;SDS011;60354;47.798;12.472;2022-07-23T07:16:50;5.53;;;3.80;;
72379;SDS011;60354;47.798;12.472;2022-07-23T07:19:16;5.43;;;3.97;;
72379;SDS011;60354;47.798;12.472;2022-07-23T07:21:41;5.05;;;3.78;;
72379;SDS011;60354;47.798;12.472;2022-07-23T07:24:07;5.63;;;3.97;;
72379;SDS011;60354;47.798;12.472;2022-07-23T07:26:32;4.78;;;3.83;;
72379;SDS011;60354;47.798;12.472;2022-07-23T07:28:58;5.65;;;3.90;;
72379;SDS011;60354;47.798;12.472;2022-07-23T07:31:24;6.75;;;4.18;;
72379;SDS011;60354;47.798;12.472;2022-07-23T07:33:49;5.57;;;3.95;;
72379;SDS011;60354;47.798;12.472;2022-07-23T07:36:15;5.03;;;3.92;;
72379;SDS011;60354;47.798;12.472;2022-07-23T07:38:40;5.45;;;4.07;;
72379;SDS011;60354;47.798;12.472;2022-07-23T07:41:06;5.22;;;3.75;;
72379;SDS011;60354;47.798;12.472;2022-07-23T07:43:32;5.35;;;3.67;;
72379;SDS011;60354;47.798;12.472;2022-07-23T07:45:58;4.53;;;3.90;;
72379;SDS011;60354;47.798;12.472;2022-07-23T07:48:24;4.78;;;4.07;;
72379;SDS011;60354;47.798;12.472;2022-07-23T07:50:52;6.28;;;3.80;;
72379;SDS011;60354;47.798;12.472;2022-07-23T07:53:17;3.85;;;3.40;;
72379;SDS011;60354;47.798;12.472;2022-07-23T07:55:43;4.70;;;3.90;;
72379;SDS011;60354;47.798;12.472;2022-07-23T07:58:08;6.03;;;4.00;;
72379;SDS011;60354;47.798;12.472;2022-07-23T08:00:34;4.30;;;3.80;;
72379;SDS011;60354;47.798;12.472;2022-07-23T08:02:59;5.43;;;3.90;;
72379;SDS011;60354;47.798;12.472;2022-07-23T08:05:26;4.60;;;3.80;;
72379;SDS011;60354;47.798;12.472;2022-07-23T08:07:57;5.07;;;3.97;;
72379;SDS011;60354;47.798;12.472;2022-07-23T08:10:24;5.72;;;3.58;;
72379;SDS011;60354;47.798;12.472;2022-07-23T08:12:52;4.28;;;3.67;;
72379;SDS011;60354;47.798;12.472;2022-07-23T08:15:20;4.60;;;3.30;;
72379;SDS011;60354;47.798;12.472;2022-07-23T08:17:46;4.25;;;3.67;;
72379;SDS011;60354;47.798;12.472;2022-07-23T08:20:13;4.10;;;3.42;;
72379;SDS011;60354;47.798;12.472;2022-07-23T08:25:11;5.38;;;3.90;;
72379;SDS011;60354;47.798;12.472;2022-07-23T08:27:37;6.15;;;4.05;;
72379;SDS011;60354;47.798;12.472;2022-07-23T08:30:03;5.00;;;3.88;;
72379;SDS011;60354;47.798;12.472;2022-07-23T08:32:29;4.82;;;3.80;;
72379;SDS011;60354;47.798;12.472;2022-07-23T08:34:54;4.43;;;3.80;;
72379;SDS011;60354;47.798;12.472;2022-07-23T08:37:20;5.45;;;3.70;;
72379;SDS011;60354;47.798;12.472;2022-07-23T08:39:45;5.43;;;3.70;;
72379;SDS011;60354;47.798;12.472;2022-07-23T08:42:11;4.40;;;3.38;;
72379;SDS011;60354;47.798;12.472;2022-07-23T08:44:39;4.80;;;3.83;;
72379;SDS011;60354;47.798;12.472;2022-07-23T08:47:09;4.65;;;3.78;;
72379;SDS011;60354;47.798;12.472;2022-07-23T08:49:36;5.45;;;3.70;;
72379;SDS011;60354;47.798;12.472;2022-07-23T08:52:03;6.03;;;3.90;;
72379;SDS011;60354;47.798;12.472;2022-07-23T08:54:29;4.90;;;3.63;;
72379;SDS011;60354;47.798;12.472;2022-07-23T08:56:55;4.25;;;3.80;;
72379;SDS011;60354;47.798;12.472;2022-07-23T08:59:20;6.30;;;3.70;;
72379;SDS011;60354;47.798;12.472;2022-07-23T09:01:46;5.25;;;3.83;;
72379;SDS011;60354;47.798;12.472;2022-07-23T09:04:11;4.35;;;3.70;;
72379;SDS011;60354;47.798;12.472;2022-07-23T09:06:40;5.38;;;3.83;;
72379;SDS011;60354;47.798;12.472;2022-07-23T09:09:17;4.97;;;3.53;;
72379;SDS011;60354;47.798;12.472;2022-07-23T09:11:48;7.50;;;3.88;;
72379;SDS011;60354;47.798;12.472;2022-07-23T09:17:11;4.72;;;3.65;;
72379;SDS011;60354;47.798;12.472;2022-07-23T09:19:41;3.45;;;2.97;;
72379;SDS011;60354;47.798;12.472;2022-07-23T09:22:20;3.47;;;3.10;;
72379;SDS011;60354;47.798;12.472;2022-07-23T09:25:02;3.70;;;3.25;;
72379;SDS011;60354;47.798;12.472;2022-07-23T09:30:20;4.30;;;3.40;;
72379;SDS011;60354;47.798;12.472;2022-07-23T09:35:53;4.22;;;3.35;;
72379;SDS011;60354;47.798;12.472;2022-07-23T09:38:21;4.68;;;3.40;;
72379;SDS011;60354;47.798;12.472;2022-07-23T09:41:08;4.90;;;3.42;;
72379;SDS011;60354;47.798;12.472;2022-07-23T09:43:34;5.47;;;3.55;;
72379;SDS011;60354;47.798;12.472;2022-07-23T09:46:16;4.45;;;3.40;;
72379;SDS011;60354;47.798;12.472;2022-07-23T09:48:49;5.30;;;3.38;;
72379;SDS011;60354;47.798;12.472;2022-07-23T09:51:17;6.13;;;3.42;;
72379;SDS011;60354;47.798;12.472;2022-07-23T09:53:57;7.00;;;3.42;;
72379;SDS011;60354;47.798;12.472;2022-07-23T09:56:23;4.30;;;3.55;;
72379;SDS011;60354;47.798;12.472;2022-07-23T09:58:50;5.15;;;3.42;;
72379;SDS011;60354;47.798;12.472;2022-07-23T10:01:30;5.93;;;3.35;;
72379;SDS011;60354;47.798;12.472;2022-07-23T10:03:56;4.20;;;3.25;;
72379;SDS011;60354;47.798;12.472;2022-07-23T10:07:02;6.10;;;3.15;;
72379;SDS011;60354;47.798;12.472;2022-07-23T10:10:05;5.07;;;3.33;;
72379;SDS011;60354;47.798;12.472;2022-07-23T10:12:49;4.18;;;3.08;;
72379;SDS011;60354;47.798;12.472;2022-07-23T10:15:51;5.13;;;3.50;;
72379;SDS011;60354;47.798;12.472;2022-07-23T10:18:17;5.10;;;3.33;;
72379;SDS011;60354;47.798;12.472;2022-07-23T10:20:43;5.40;;;3.20;;
72379;SDS011;60354;47.798;12.472;2022-07-23T10:23:20;4.55;;;3.10;;
72379;SDS011;60354;47.798;12.472;2022-07-23T10:36:56;4.63;;;3.28;;
72379;SDS011;60354;47.798;12.472;2022-07-23T10:39:28;4.22;;;3.28;;
72379;SDS011;60354;47.798;12.472;2022-07-23T10:42:12;3.85;;;3.45;;
72379;SDS011;60354;47.798;12.472;2022-07-23T10:44:43;5.10;;;3.17;;
72379;SDS011;60354;47.798;12.472;2022-07-23T10:47:13;4.13;;;3.22;;
72379;SDS011;60354;47.798;12.472;2022-07-23T10:58:04;5.15;;;2.90;;
72379;SDS011;60354;47.798;12.472;2022-07-23T11:00:31;3.85;;;3.10;;
72379;SDS011;60354;47.798;12.472;2022-07-23T11:02:59;3.88;;;3.25;;
72379;SDS011;60354;47.798;12.472;2022-07-23T11:05:26;3.70;;;3.20;;
72379;SDS011;60354;47.798;12.472;2022-07-23T11:25:10;4.50;;;3.40;;
72379;SDS011;60354;47.798;12.472;2022-07-23T11:28:15;5.75;;;3.40;;
72379;SDS011;60354;47.798;12.472;2022-07-23T11:31:30;3.75;;;2.75;;
72379;SDS011;60354;47.798;12.472;2022-07-23T11:54:04;6.40;;;2.83;;
72379;SDS011;60354;47.798;12.472;2022-07-23T12:09:00;3.90;;;3.00;;
72379;SDS011;60354;47.798;12.472;2022-07-23T12:15:12;3.78;;;3.10;;
72379;SDS011;60354;47.798;12.472;2022-07-23T12:17:40;4.25;;;2.88;;
72379;SDS011;60354;47.798;12.472;2022-07-23T12:20:08;4.22;;;2.80;;
72379;SDS011;60354;47.798;12.472;2022-07-23T12:22:44;5.40;;;3.03;;
72379;SDS011;60354;47.798;12.472;2022-07-23T12:25:15;4.88;;;3.20;;
72379;SDS011;60354;47.798;12.472;2022-07-23T12:27:43;7.05;;;3.10;;
72379;SDS011;60354;47.798;12.472;2022-07-23T12:30:25;4.78;;;3.30;;
72379;SDS011;60354;47.798;12.472;2022-07-23T12:33:13;5.13;;;3.13;;
72379;SDS011;60354;47.798;12.472;2022-07-23T12:36:00;5.35;;;3.20;;
72379;SDS011;60354;47.798;12.472;2022-07-23T12:38:36;4.32;;;3.10;;
72379;SDS011;60354;47.798;12.472;2022-07-23T12:41:04;6.78;;;3.63;;
72379;SDS011;60354;47.798;12.472;2022-07-23T12:43:35;7.28;;;3.50;;
72379;SDS011;60354;47.798;12.472;2022-07-23T12:46:11;5.72;;;3.63;;
72379;SDS011;60354;47.798;12.472;2022-07-23T12:51:15;3.88;;;3.40;;
72379;SDS011;60354;47.798;12.472;2022-07-23T12:53:42;5.82;;;3.42;;
72379;SDS011;60354;47.798;12.472;2022-07-23T12:56:16;7.28;;;3.67;;
72379;SDS011;60354;47.798;12.472;2022-07-23T12:59:04;4.97;;;3.20;;
72379;SDS011;60354;47.798;12.472;2022-07-23T13:01:42;4.47;;;3.50;;
72379;SDS011;60354;47.798;12.472;2022-07-23T13:09:09;5.53;;;3.72;;
72379;SDS011;60354;47.798;12.472;2022-07-23T13:11:38;8.02;;;3.83;;
72379;SDS011;60354;47.798;12.472;2022-07-23T13:14:04;5.28;;;3.67;;
72379;SDS011;60354;47.798;12.472;2022-07-23T13:16:31;5.15;;;3.72;;
72379;SDS011;60354;47.798;12.472;2022-07-23T13:18:57;4.35;;;3.40;;
72379;SDS011;60354;47.798;12.472;2022-07-23T13:21:23;5.45;;;3.90;;
72379;SDS011;60354;47.798;12.472;2022-07-23T13:23:50;6.70;;;3.70;;
72379;SDS011;60354;47.798;12.472;2022-07-23T13:26:16;5.78;;;3.15;;
72379;SDS011;60354;47.798;12.472;2022-07-23T13:28:42;5.20;;;4.00;;
72379;SDS011;60354;47.798;12.472;2022-07-23T13:31:08;6.90;;;3.95;;
72379;SDS011;60354;47.798;12.472;2022-07-23T13:33:34;6.18;;;3.70;;
72379;SDS011;60354;47.798;12.472;2022-07-23T13:36:00;5.50;;;3.65;;
72379;SDS011;60354;47.798;12.472;2022-07-23T13:38:26;5.65;;;3.85;;
72379;SDS011;60354;47.798;12.472;2022-07-23T13:40:53;7.85;;;3.97;;
72379;SDS011;60354;47.798;12.472;2022-07-23T13:43:20;7.80;;;3.88;;
72379;SDS011;60354;47.798;12.472;2022-07-23T13:45:47;5.07;;;3.90;;
72379;SDS011;60354;47.798;12.472;2022-07-23T13:48:13;8.00;;;3.95;;
72379;SDS011;60354;47.798;12.472;2022-07-23T13:50:40;9.50;;;3.80;;
72379;SDS011;60354;47.798;12.472;2022-07-23T13:53:08;5.10;;;3.65;;
72379;SDS011;60354;47.798;12.472;2022-07-23T13:55:37;8.05;;;4.03;;
72379;SDS011;60354;47.798;12.472;2022-07-23T13:58:03;6.55;;;3.95;;
72379;SDS011;60354;47.798;12.472;2022-07-23T14:00:30;4.97;;;3.70;;
72379;SDS011;60354;47.798;12.472;2022-07-23T14:02:57;4.93;;;3.80;;
72379;SDS011;60354;47.798;12.472;2022-07-23T14:05:24;6.05;;;3.80;;
72379;SDS011;60354;47.798;12.472;2022-07-23T14:07:49;5.43;;;3.70;;
72379;SDS011;60354;47.798;12.472;2022-07-23T14:10:17;6.28;;;3.80;;
72379;SDS011;60354;47.798;12.472;2022-07-23T14:12:44;5.57;;;3.78;;
72379;SDS011;60354;47.798;12.472;2022-07-23T14:15:11;7.25;;;3.70;;
72379;SDS011;60354;47.798;12.472;2022-07-23T14:17:37;4.65;;;3.80;;
72379;SDS011;60354;47.798;12.472;2022-07-23T14:20:05;5.85;;;3.92;;
72379;SDS011;60354;47.798;12.472;2022-07-23T14:22:31;5.10;;;3.60;;
72379;SDS011;60354;47.798;12.472;2022-07-23T14:24:57;5.95;;;4.10;;
72379;SDS011;60354;47.798;12.472;2022-07-23T14:27:24;4.90;;;4.00;;
72379;SDS011;60354;47.798;12.472;2022-07-23T14:29:50;8.80;;;4.28;;
72379;SDS011;60354;47.798;12.472;2022-07-23T14:32:16;5.43;;;4.18;;
72379;SDS011;60354;47.798;12.472;2022-07-23T14:34:42;8.07;;;4.30;;
72379;SDS011;60354;47.798;12.472;2022-07-23T14:37:09;7.88;;;4.38;;
72379;SDS011;60354;47.798;12.472;2022-07-23T14:39:36;5.55;;;4.15;;
72379;SDS011;60354;47.798;12.472;2022-07-23T14:42:02;7.53;;;3.90;;
72379;SDS011;60354;47.798;12.472;2022-07-23T14:44:28;4.25;;;3.47;;
72379;SDS011;60354;47.798;12.472;2022-07-23T14:46:53;6.55;;;3.63;;
72379;SDS011;60354;47.798;12.472;2022-07-23T14:49:19;4.30;;;3.30;;
72379;SDS011;60354;47.798;12.472;2022-07-23T14:51:44;6.28;;;3.83;;
72379;SDS011;60354;47.798;12.472;2022-07-23T14:54:10;4.80;;;3.45;;
72379;SDS011;60354;47.798;12.472;2022-07-23T14:56:36;4.97;;;3.40;;
72379;SDS011;60354;47.798;12.472;2022-07-23T14:59:03;3.92;;;3.28;;
72379;SDS011;60354;47.798;12.472;2022-07-23T15:01:29;6.13;;;3.28;;
72379;SDS011;60354;47.798;12.472;2022-07-23T15:03:54;6.30;;;3.35;;
72379;SDS011;60354;47.798;12.472;2022-07-23T15:06:20;5.20;;;3.50;;
72379;SDS011;60354;47.798;12.472;2022-07-23T15:08:46;5.75;;;3.55;;
72379;SDS011;60354;47.798;12.472;2022-07-23T15:11:11;5.97;;;3.70;;
72379;SDS011;60354;47.798;12.472;2022-07-23T15:13:37;4.20;;;3.45;;
72379;SDS011;60354;47.798;12.472;2022-07-23T15:16:04;4.20;;;3.45;;
72379;SDS011;60354;47.798;12.472;2022-07-23T15:18:30;5.47;;;3.72;;
72379;SDS011;60354;47.798;12.472;2022-07-23T15:20:56;5.63;;;3.80;;
72379;SDS011;60354;47.798;12.472;2022-07-23T15:23:22;5.28;;;3.63;;
72379;SDS011;60354;47.798;12.472;2022-07-23T15:25:47;4.38;;;3.75;;
72379;SDS011;60354;47.798;12.472;2022-07-23T15:28:13;5.10;;;3.70;;
72379;SDS011;60354;47.798;12.472;2022-07-23T15:30:38;5.40;;;3.30;;
72379;SDS011;60354;47.798;12.472;2022-07-23T15:33:04;4.45;;;3.58;;
72379;SDS011;60354;47.798;12.472;2022-07-23T15:35:31;5.35;;;3.33;;
72379;SDS011;60354;47.798;12.472;2022-07-23T15:37:57;5.05;;;3.55;;
72379;SDS011;60354;47.798;12.472;2022-07-23T15:40:22;5.50;;;3.63;;
72379;SDS011;60354;47.798;12.472;2022-07-23T15:42:48;5.40;;;3.70;;
72379;SDS011;60354;47.798;12.472;2022-07-23T15:45:14;6.22;;;3.85;;
72379;SDS011;60354;47.798;12.472;2022-07-23T15:47:40;5.95;;;3.80;;
72379;SDS011;60354;47.798;12.472;2022-07-23T15:50:06;6.75;;;4.10;;
72379;SDS011;60354;47.798;12.472;2022-07-23T15:52:34;8.13;;;4.18;;
72379;SDS011;60354;47.798;12.472;2022-07-23T15:55:00;17.10;;;4.22;;
72379;SDS011;60354;47.798;12.472;2022-07-23T15:57:26;7.50;;;3.80;;
72379;SDS011;60354;47.798;12.472;2022-07-23T15:59:51;6.55;;;3.75;;
72379;SDS011;60354;47.798;12.472;2022-07-23T16:02:17;5.53;;;3.60;;
72379;SDS011;60354;47.798;12.472;2022-07-23T16:04:43;4.60;;;3.63;;
72379;SDS011;60354;47.798;12.472;2022-07-23T16:07:08;7.63;;;4.10;;
72379;SDS011;60354;47.798;12.472;2022-07-23T16:09:34;4.95;;;3.80;;
72379;SDS011;60354;47.798;12.472;2022-07-23T16:11:59;4.72;;;3.90;;